sensor_id;sensor_type;location;lat;lon;timestamp;pressure;altitude;pressure_sealevel;temperature;humidity
63808;BME280;49961;43.970;22.868;2023-05-23T00:00:03;101253.13;;;17.66;100.00
63808;BME280;49961;43.970;22.868;2023-05-23T00:01:05;101276.50;;;17.63;100.00
63808;BME280;49961;43.970;22.868;2023-05-23T00:02:08;101249.69;;;17.53;100.00
63808;BME280;49961;43.970;22.868;2023-05-23T00:03:09;101266.03;;;17.63;100.00
63808;BME280;49961;43.970;22.868;2023-05-23T00:04:10;101261.69;;;17.63;100.00
63808;BME280;49961;43.970;22.868;2023-05-23T00:05:16;101259.94;;;17.56;100.00
63808;BME280;49961;43.970;22.868;2023-05-23T00:06:20;101255.59;;;17.55;100.00
63808;BME280;49961;43.970;22.868;2023-05-23T00:07:21;101255.44;;;17.50;100.00
63808;BME280;49961;43.970;22.868;2023-05-23T00:08:21;101242.31;;;17.37;100.00
63808;BME280;49961;43.970;22.868;2023-05-23T00:09:22;101254.03;;;17.45;100.00
63808;BME280;49961;43.970;22.868;2023-05-23T00:10:22;101231.59;;;17.36;100.00
63808;BME280;49961;43.970;22.868;2023-05-23T00:11:23;101058.78;;;16.21;100.00
63808;BME280;49961;43.970;22.868;2023-05-23T00:12:26;101256.22;;;17.41;100.00
63808;BME280;49961;43.970;22.868;2023-05-23T00:13:26;101250.63;;;17.41;100.00
63808;BME280;49961;43.970;22.868;2023-05-23T00:14:27;101245.00;;;17.41;100.00
63808;BME280;49961;43.970;22.868;2023-05-23T00:15:30;101248.56;;;17.42;100.00
63808;BME280;49961;43.970;22.868;2023-05-23T00:16:32;101250.63;;;17.41;100.00
63808;BME280;49961;43.970;22.868;2023-05-23T00:17:33;101250.13;;;17.42;100.00
63808;BME280;49961;43.970;22.868;2023-05-23T00:18:37;101248.41;;;17.45;100.00
63808;BME280;49961;43.970;22.868;2023-05-23T00:19:39;101243.91;;;17.39;100.00
63808;BME280;49961;43.970;22.868;2023-05-23T00:20:40;101227.03;;;17.29;100.00
63808;BME280;49961;43.970;22.868;2023-05-23T00:21:45;101253.25;;;17.45;100.00
63808;BME280;49961;43.970;22.868;2023-05-23T00:22:49;101254.50;;;17.44;100.00
63808;BME280;49961;43.970;22.868;2023-05-23T00:23:52;101139.75;;;16.64;100.00
63808;BME280;49961;43.970;22.868;2023-05-23T00:24:52;101246.09;;;17.44;100.00
63808;BME280;49961;43.970;22.868;2023-05-23T00:25:53;101242.66;;;17.40;100.00
63808;BME280;49961;43.970;22.868;2023-05-23T00:26:53;101243.09;;;17.38;100.00
63808;BME280;49961;43.970;22.868;2023-05-23T00:27:54;101247.47;;;17.39;100.00
63808;BME280;49961;43.970;22.868;2023-05-23T00:28:54;101141.81;;;16.73;100.00
63808;BME280;49961;43.970;22.868;2023-05-23T00:29:55;101244.22;;;17.41;100.00
63808;BME280;49961;43.970;22.868;2023-05-23T00:30:55;101247.31;;;17.42;100.00
63808;BME280;49961;43.970;22.868;2023-05-23T00:31:56;101240.63;;;17.40;100.00
63808;BME280;49961;43.970;22.868;2023-05-23T00:32:56;101247.31;;;17.42;100.00
63808;BME280;49961;43.970;22.868;2023-05-23T00:33:58;101241.41;;;17.41;100.00
63808;BME280;49961;43.970;22.868;2023-05-23T00:34:58;101247.03;;;17.41;100.00
63808;BME280;49961;43.970;22.868;2023-05-23T00:35:59;101171.09;;;16.90;100.00
63808;BME280;49961;43.970;22.868;2023-05-23T00:36:59;101235.16;;;17.36;100.00
63808;BME280;49961;43.970;22.868;2023-05-23T00:38:01;101237.31;;;17.32;100.00
63808;BME280;49961;43.970;22.868;2023-05-23T00:39:02;101236.38;;;17.26;100.00
63808;BME280;49961;43.970;22.868;2023-05-23T00:40:04;101234.66;;;17.29;100.00
63808;BME280;49961;43.970;22.868;2023-05-23T00:41:05;101238.41;;;17.26;100.00
63808;BME280;49961;43.970;22.868;2023-05-23T00:42:06;101236.06;;;17.24;100.00
63808;BME280;49961;43.970;22.868;2023-05-23T00:43:06;101234.03;;;17.25;100.00
63808;BME280;49961;43.970;22.868;2023-05-23T00:44:10;101232.47;;;17.24;100.00
63808;BME280;49961;43.970;22.868;2023-05-23T00:45:11;101094.88;;;16.37;100.00
63808;BME280;49961;43.970;22.868;2023-05-23T00:46:12;101233.41;;;17.21;100.00
63808;BME280;49961;43.970;22.868;2023-05-23T00:47:13;101222.47;;;17.14;100.00
63808;BME280;49961;43.970;22.868;2023-05-23T00:48:14;101163.72;;;16.74;100.00
63808;BME280;49961;43.970;22.868;2023-05-23T00:49:15;101234.63;;;17.20;100.00
63808;BME280;49961;43.970;22.868;2023-05-23T00:50:19;101237.13;;;17.18;100.00
63808;BME280;49961;43.970;22.868;2023-05-23T00:51:20;101229.97;;;17.17;100.00
63808;BME280;49961;43.970;22.868;2023-05-23T00:52:21;101231.53;;;17.18;100.00
63808;BME280;49961;43.970;22.868;2023-05-23T00:53:21;101227.03;;;17.20;100.00
63808;BME280;49961;43.970;22.868;2023-05-23T00:54:27;101236.66;;;17.19;100.00
63808;BME280;49961;43.970;22.868;2023-05-23T00:55:30;101232.78;;;17.17;100.00
63808;BME280;49961;43.970;22.868;2023-05-23T00:56:30;101215.63;;;17.06;100.00
63808;BME280;49961;43.970;22.868;2023-05-23T00:57:31;101208.28;;;16.99;100.00
63808;BME280;49961;43.970;22.868;2023-05-23T00:58:34;101237.09;;;17.09;100.00
63808;BME280;49961;43.970;22.868;2023-05-23T00:59:35;101240.84;;;17.06;100.00
63808;BME280;49961;43.970;22.868;2023-05-23T01:00:37;101241.28;;;17.04;100.00
63808;BME280;49961;43.970;22.868;2023-05-23T01:01:38;101249.66;;;16.95;100.00
63808;BME280;49961;43.970;22.868;2023-05-23T01:02:42;101169.38;;;16.44;100.00
63808;BME280;49961;43.970;22.868;2023-05-23T01:03:44;101245.91;;;16.89;100.00
63808;BME280;49961;43.970;22.868;2023-05-23T01:04:44;101246.81;;;16.86;100.00
63808;BME280;49961;43.970;22.868;2023-05-23T01:05:45;101254.84;;;16.75;100.00
63808;BME280;49961;43.970;22.868;2023-05-23T01:06:45;101259.31;;;16.64;100.00
63808;BME280;49961;43.970;22.868;2023-05-23T01:07:48;101161.53;;;15.65;100.00
63808;BME280;49961;43.970;22.868;2023-05-23T01:08:50;101277.41;;;16.29;100.00
63808;BME280;49961;43.970;22.868;2023-05-23T01:09:50;101282.72;;;16.36;100.00
63808;BME280;49961;43.970;22.868;2023-05-23T01:10:51;101274.13;;;16.30;100.00
63808;BME280;49961;43.970;22.868;2023-05-23T01:12:18;101211.53;;;16.06;100.00
63808;BME280;49961;43.970;22.868;2023-05-23T01:13:42;101270.13;;;16.53;100.00
63808;BME280;49961;43.970;22.868;2023-05-23T01:14:52;101267.97;;;16.57;100.00
63808;BME280;49961;43.970;22.868;2023-05-23T01:16:03;101277.00;;;16.61;100.00
63808;BME280;49961;43.970;22.868;2023-05-23T01:17:18;101202.81;;;16.04;100.00
63808;BME280;49961;43.970;22.868;2023-05-23T01:18:36;101252.97;;;16.42;100.00
63808;BME280;49961;43.970;22.868;2023-05-23T01:20:49;101276.22;;;16.60;100.00
63808;BME280;49961;43.970;22.868;2023-05-23T01:21:52;101279.97;;;16.66;100.00
63808;BME280;49961;43.970;22.868;2023-05-23T01:27:00;101273.19;;;16.76;100.00
63808;BME280;49961;43.970;22.868;2023-05-23T01:28:03;101278.34;;;16.78;100.00
63808;BME280;49961;43.970;22.868;2023-05-23T01:29:10;101269.50;;;16.79;100.00
63808;BME280;49961;43.970;22.868;2023-05-23T01:30:17;101170.88;;;16.14;100.00
63808;BME280;49961;43.970;22.868;2023-05-23T01:31:19;101085.19;;;15.68;100.00
63808;BME280;49961;43.970;22.868;2023-05-23T01:32:22;101261.41;;;16.81;100.00
63808;BME280;49961;43.970;22.868;2023-05-23T01:33:24;101262.69;;;16.89;100.00
63808;BME280;49961;43.970;22.868;2023-05-23T01:34:25;101268.28;;;16.89;100.00
63808;BME280;49961;43.970;22.868;2023-05-23T01:35:26;101269.41;;;16.92;100.00
63808;BME280;49961;43.970;22.868;2023-05-23T01:36:26;101250.84;;;16.85;100.00
63808;BME280;49961;43.970;22.868;2023-05-23T01:37:27;101264.59;;;16.92;100.00
63808;BME280;49961;43.970;22.868;2023-05-23T01:38:28;101278.44;;;16.96;100.00
63808;BME280;49961;43.970;22.868;2023-05-23T01:39:29;101262.56;;;16.93;100.00
63808;BME280;49961;43.970;22.868;2023-05-23T01:40:30;101084.34;;;15.80;100.00
63808;BME280;49961;43.970;22.868;2023-05-23T01:41:30;101261.78;;;16.92;100.00
63808;BME280;49961;43.970;22.868;2023-05-23T01:42:31;101255.84;;;16.90;100.00
63808;BME280;49961;43.970;22.868;2023-05-23T01:43:31;101257.09;;;16.89;100.00
63808;BME280;49961;43.970;22.868;2023-05-23T01:44:33;101267.19;;;16.87;100.00
63808;BME280;49961;43.970;22.868;2023-05-23T01:45:34;101251.91;;;16.79;100.00
63808;BME280;49961;43.970;22.868;2023-05-23T01:46:36;101070.25;;;15.62;100.00
63808;BME280;49961;43.970;22.868;2023-05-23T01:47:39;101252.69;;;16.79;100.00
63808;BME280;49961;43.970;22.868;2023-05-23T01:48:41;101255.66;;;16.76;100.00
63808;BME280;49961;43.970;22.868;2023-05-23T01:49:42;101264.81;;;16.76;100.00
63808;BME280;49961;43.970;22.868;2023-05-23T01:50:44;101264.81;;;16.76;100.00
63808;BME280;49961;43.970;22.868;2023-05-23T01:51:45;101253.75;;;16.73;100.00
63808;BME280;49961;43.970;22.868;2023-05-23T01:52:46;101255.34;;;16.83;100.00
63808;BME280;49961;43.970;22.868;2023-05-23T01:53:47;101270.28;;;16.80;100.00
63808;BME280;49961;43.970;22.868;2023-05-23T01:54:48;101255.50;;;16.79;100.00
63808;BME280;49961;43.970;22.868;2023-05-23T01:55:50;101259.09;;;16.80;100.00
63808;BME280;49961;43.970;22.868;2023-05-23T01:56:51;101255.50;;;16.79;100.00
63808;BME280;49961;43.970;22.868;2023-05-23T01:57:55;101254.25;;;16.80;100.00
63808;BME280;49961;43.970;22.868;2023-05-23T01:58:56;101255.81;;;16.81;100.00
63808;BME280;49961;43.970;22.868;2023-05-23T01:59:57;101252.25;;;16.81;100.00
63808;BME280;49961;43.970;22.868;2023-05-23T02:00:57;101255.81;;;16.81;100.00
63808;BME280;49961;43.970;22.868;2023-05-23T02:01:58;101260.94;;;16.83;100.00
63808;BME280;49961;43.970;22.868;2023-05-23T02:02:59;101263.00;;;16.83;100.00
63808;BME280;49961;43.970;22.868;2023-05-23T02:03:59;101267.34;;;16.83;100.00
63808;BME280;49961;43.970;22.868;2023-05-23T02:05:00;101209.03;;;16.52;100.00
63808;BME280;49961;43.970;22.868;2023-05-23T02:06:00;101238.00;;;16.66;100.00
63808;BME280;49961;43.970;22.868;2023-05-23T02:07:00;101264.22;;;16.81;100.00
63808;BME280;49961;43.970;22.868;2023-05-23T02:08:01;101265.78;;;16.83;100.00
63808;BME280;49961;43.970;22.868;2023-05-23T02:09:01;101257.19;;;16.77;100.00
63808;BME280;49961;43.970;22.868;2023-05-23T02:10:03;101258.28;;;16.79;100.00
63808;BME280;49961;43.970;22.868;2023-05-23T02:11:04;101250.63;;;16.71;100.00
63808;BME280;49961;43.970;22.868;2023-05-23T02:12:04;101255.66;;;16.76;100.00
63808;BME280;49961;43.970;22.868;2023-05-23T02:13:05;101254.09;;;16.75;100.00
63808;BME280;49961;43.970;22.868;2023-05-23T02:14:06;101250.94;;;16.73;100.00
63808;BME280;49961;43.970;22.868;2023-05-23T02:15:06;101172.56;;;16.12;100.00
63808;BME280;49961;43.970;22.868;2023-05-23T02:16:07;101250.63;;;16.71;100.00
63808;BME280;49961;43.970;22.868;2023-05-23T02:17:08;101142.97;;;15.93;100.00
63808;BME280;49961;43.970;22.868;2023-05-23T02:18:14;101254.34;;;16.68;100.00
63808;BME280;49961;43.970;22.868;2023-05-23T02:19:14;101247.66;;;16.65;100.00
63808;BME280;49961;43.970;22.868;2023-05-23T02:20:14;101249.19;;;16.66;100.00
63808;BME280;49961;43.970;22.868;2023-05-23T02:21:15;101254.34;;;16.68;100.00
63808;BME280;49961;43.970;22.868;2023-05-23T02:22:15;101128.41;;;15.76;100.00
63808;BME280;49961;43.970;22.868;2023-05-23T02:23:16;101246.53;;;16.63;100.00
63808;BME280;49961;43.970;22.868;2023-05-23T02:24:16;101249.03;;;16.61;100.00
63808;BME280;49961;43.970;22.868;2023-05-23T02:25:16;101256.31;;;16.58;100.00
63808;BME280;49961;43.970;22.868;2023-05-23T02:26:17;101251.19;;;16.57;100.00
63808;BME280;49961;43.970;22.868;2023-05-23T02:27:18;101216.84;;;16.35;100.00
63808;BME280;49961;43.970;22.868;2023-05-23T02:28:18;101251.53;;;16.59;100.00
63808;BME280;49961;43.970;22.868;2023-05-23T02:29:19;101225.44;;;16.40;100.00
63808;BME280;49961;43.970;22.868;2023-05-23T02:30:19;101226.00;;;16.35;100.00
63808;BME280;49961;43.970;22.868;2023-05-23T02:31:19;101258.97;;;16.62;100.00
63808;BME280;49961;43.970;22.868;2023-05-23T02:32:20;101223.53;;;16.37;100.00
63808;BME280;49961;43.970;22.868;2023-05-23T02:33:20;101255.72;;;16.63;100.00
63808;BME280;49961;43.970;22.868;2023-05-23T02:34:21;101264.91;;;16.64;100.00
63808;BME280;49961;43.970;22.868;2023-05-23T02:35:21;101262.13;;;16.64;100.00
63808;BME280;49961;43.970;22.868;2023-05-23T02:36:22;101269.28;;;16.65;100.00
63808;BME280;49961;43.970;22.868;2023-05-23T02:37:22;101175.50;;;16.08;100.00
63808;BME280;49961;43.970;22.868;2023-05-23T02:38:23;101259.31;;;16.64;100.00
63808;BME280;49961;43.970;22.868;2023-05-23T02:39:23;101255.72;;;16.63;100.00
63808;BME280;49961;43.970;22.868;2023-05-23T02:40:23;101258.84;;;16.65;100.00
63808;BME280;49961;43.970;22.868;2023-05-23T02:41:24;101260.09;;;16.64;100.00
63808;BME280;49961;43.970;22.868;2023-05-23T02:42:25;101155.41;;;16.01;100.00
63808;BME280;49961;43.970;22.868;2023-05-23T02:43:25;101257.59;;;16.66;100.00
63808;BME280;49961;43.970;22.868;2023-05-23T02:44:25;101236.44;;;16.57;100.00
63808;BME280;49961;43.970;22.868;2023-05-23T02:45:26;101255.13;;;16.68;100.00
63808;BME280;49961;43.970;22.868;2023-05-23T02:46:26;101259.94;;;16.68;100.00
63808;BME280;49961;43.970;22.868;2023-05-23T02:47:27;101252.78;;;16.67;100.00
63808;BME280;49961;43.970;22.868;2023-05-23T02:48:27;101057.88;;;15.42;100.00
63808;BME280;49961;43.970;22.868;2023-05-23T02:49:28;101258.53;;;16.63;100.00
63808;BME280;49961;43.970;22.868;2023-05-23T02:50:28;101249.19;;;16.58;100.00
63808;BME280;49961;43.970;22.868;2023-05-23T02:51:28;101252.16;;;16.63;100.00
63808;BME280;49961;43.970;22.868;2023-05-23T02:52:31;101134.66;;;15.80;100.00
63808;BME280;49961;43.970;22.868;2023-05-23T02:53:31;101241.03;;;16.50;100.00
63808;BME280;49961;43.970;22.868;2023-05-23T02:54:32;101252.16;;;16.63;100.00
63808;BME280;49961;43.970;22.868;2023-05-23T02:55:32;101252.63;;;16.62;100.00
63808;BME280;49961;43.970;22.868;2023-05-23T02:56:32;101255.72;;;16.63;100.00
63808;BME280;49961;43.970;22.868;2023-05-23T02:57:33;101248.13;;;16.64;100.00
63808;BME280;49961;43.970;22.868;2023-05-23T02:58:34;101261.34;;;16.63;100.00
63808;BME280;49961;43.970;22.868;2023-05-23T02:59:37;101103.00;;;15.62;100.00
63808;BME280;49961;43.970;22.868;2023-05-23T03:00:37;101252.28;;;16.59;100.00
63808;BME280;49961;43.970;22.868;2023-05-23T03:01:38;101252.28;;;16.59;100.00
63808;BME280;49961;43.970;22.868;2023-05-23T03:02:38;101251.84;;;16.61;100.00
63808;BME280;49961;43.970;22.868;2023-05-23T03:03:39;101245.41;;;16.52;100.00
63808;BME280;49961;43.970;22.868;2023-05-23T03:04:40;101270.78;;;16.57;100.00
63808;BME280;49961;43.970;22.868;2023-05-23T03:05:41;101265.16;;;16.57;100.00
63808;BME280;49961;43.970;22.868;2023-05-23T03:06:41;101262.06;;;16.55;100.00
63808;BME280;49961;43.970;22.868;2023-05-23T03:07:43;101254.13;;;16.53;100.00
63808;BME280;49961;43.970;22.868;2023-05-23T03:08:43;101263.75;;;16.52;100.00
63808;BME280;49961;43.970;22.868;2023-05-23T03:09:44;101262.66;;;16.50;100.00
63808;BME280;49961;43.970;22.868;2023-05-23T03:10:44;101265.47;;;16.50;100.00
63808;BME280;49961;43.970;22.868;2023-05-23T03:11:45;101256.59;;;16.52;100.00
63808;BME280;49961;43.970;22.868;2023-05-23T03:13:04;101258.94;;;16.53;100.00
63808;BME280;49961;43.970;22.868;2023-05-23T03:14:04;101263.75;;;16.52;100.00
63808;BME280;49961;43.970;22.868;2023-05-23T03:15:05;101264.66;;;16.49;100.00
63808;BME280;49961;43.970;22.868;2023-05-23T03:16:06;101255.00;;;16.42;100.00
63808;BME280;49961;43.970;22.868;2023-05-23T03:17:06;101263.56;;;16.47;100.00
63808;BME280;49961;43.970;22.868;2023-05-23T03:18:06;101266.69;;;16.49;100.00
63808;BME280;49961;43.970;22.868;2023-05-23T03:19:07;101262.00;;;16.46;100.00
63808;BME280;49961;43.970;22.868;2023-05-23T03:20:08;101264.66;;;16.49;100.00
63808;BME280;49961;43.970;22.868;2023-05-23T03:21:09;101263.41;;;16.50;100.00
63808;BME280;49961;43.970;22.868;2023-05-23T03:22:09;101260.97;;;16.52;100.00
63808;BME280;49961;43.970;22.868;2023-05-23T03:23:09;101258.47;;;16.54;100.00
63808;BME280;49961;43.970;22.868;2023-05-23T03:24:10;101262.50;;;16.53;100.00
63808;BME280;49961;43.970;22.868;2023-05-23T03:25:10;101271.22;;;16.55;100.00
63808;BME280;49961;43.970;22.868;2023-05-23T03:26:11;101256.78;;;16.57;100.00
63808;BME280;49961;43.970;22.868;2023-05-23T03:27:11;101259.91;;;16.59;100.00
63808;BME280;49961;43.970;22.868;2023-05-23T03:28:12;101259.56;;;16.57;100.00
63808;BME280;49961;43.970;22.868;2023-05-23T03:29:12;101261.03;;;16.62;100.00
63808;BME280;49961;43.970;22.868;2023-05-23T03:30:12;101263.81;;;16.62;100.00
63808;BME280;49961;43.970;22.868;2023-05-23T03:31:13;101263.34;;;16.63;100.00
63808;BME280;49961;43.970;22.868;2023-05-23T03:32:13;101260.53;;;16.63;100.00
63808;BME280;49961;43.970;22.868;2023-05-23T03:33:14;101262.22;;;16.60;100.00
63808;BME280;49961;43.970;22.868;2023-05-23T03:34:15;101263.03;;;16.61;100.00
63808;BME280;49961;43.970;22.868;2023-05-23T03:35:15;101260.81;;;16.56;100.00
63808;BME280;49961;43.970;22.868;2023-05-23T03:36:16;101265.00;;;16.52;100.00
63808;BME280;49961;43.970;22.868;2023-05-23T03:37:16;101256.28;;;16.49;100.00
63808;BME280;49961;43.970;22.868;2023-05-23T03:38:17;101263.91;;;16.49;100.00
63808;BME280;49961;43.970;22.868;2023-05-23T03:39:17;101264.66;;;16.49;100.00
63808;BME280;49961;43.970;22.868;2023-05-23T03:40:18;101268.38;;;16.47;100.00
63808;BME280;49961;43.970;22.868;2023-05-23T03:41:18;101196.69;;;15.97;100.00
63808;BME280;49961;43.970;22.868;2023-05-23T03:42:19;101266.56;;;16.52;100.00
63808;BME280;49961;43.970;22.868;2023-05-23T03:43:19;101265.31;;;16.53;100.00
63808;BME280;49961;43.970;22.868;2023-05-23T03:44:20;101263.63;;;16.56;100.00
63808;BME280;49961;43.970;22.868;2023-05-23T03:45:20;101264.72;;;16.58;100.00
63808;BME280;49961;43.970;22.868;2023-05-23T03:46:20;101271.41;;;16.61;100.00
63808;BME280;49961;43.970;22.868;2023-05-23T03:47:21;101265.81;;;16.61;100.00
63808;BME280;49961;43.970;22.868;2023-05-23T03:48:23;101155.34;;;15.92;100.00
63808;BME280;49961;43.970;22.868;2023-05-23T03:49:23;101233.38;;;16.42;100.00
63808;BME280;49961;43.970;22.868;2023-05-23T03:50:26;101155.34;;;15.92;100.00
63808;BME280;49961;43.970;22.868;2023-05-23T03:51:27;101096.13;;;15.54;100.00
63808;BME280;49961;43.970;22.868;2023-05-23T03:52:28;101265.88;;;16.70;100.00
63808;BME280;49961;43.970;22.868;2023-05-23T03:53:28;101265.41;;;16.71;100.00
63808;BME280;49961;43.970;22.868;2023-05-23T03:54:29;101268.84;;;16.75;100.00
63808;BME280;49961;43.970;22.868;2023-05-23T03:55:30;101221.19;;;16.36;100.00
63808;BME280;49961;43.970;22.868;2023-05-23T03:56:31;101272.38;;;16.67;100.00
63808;BME280;49961;43.970;22.868;2023-05-23T03:57:31;101272.84;;;16.65;100.00
63808;BME280;49961;43.970;22.868;2023-05-23T03:58:32;101265.81;;;16.61;100.00
63808;BME280;49961;43.970;22.868;2023-05-23T03:59:33;101261.78;;;16.62;100.00
63808;BME280;49961;43.970;22.868;2023-05-23T04:00:34;101285.31;;;16.73;100.00
63808;BME280;49961;43.970;22.868;2023-05-23T04:01:34;101222.63;;;16.40;100.00
63808;BME280;49961;43.970;22.868;2023-05-23T04:02:35;101262.88;;;16.64;100.00
63808;BME280;49961;43.970;22.868;2023-05-23T04:03:35;101275.69;;;16.74;100.00
63808;BME280;49961;43.970;22.868;2023-05-23T04:04:36;101276.59;;;16.71;100.00
63808;BME280;49961;43.970;22.868;2023-05-23T04:05:36;101278.47;;;16.74;100.00
63808;BME280;49961;43.970;22.868;2023-05-23T04:06:36;101264.63;;;16.71;100.00
63808;BME280;49961;43.970;22.868;2023-05-23T04:07:37;101237.34;;;16.53;100.00
63808;BME280;49961;43.970;22.868;2023-05-23T04:08:38;101281.78;;;16.82;100.00
63808;BME280;49961;43.970;22.868;2023-05-23T04:09:41;101273.59;;;16.88;100.00
63808;BME280;49961;43.970;22.868;2023-05-23T04:10:41;101275.00;;;16.92;100.00
63808;BME280;49961;43.970;22.868;2023-05-23T04:11:42;101170.75;;;16.18;100.00
63808;BME280;49961;43.970;22.868;2023-05-23T04:12:43;101250.81;;;16.76;100.00
63808;BME280;49961;43.970;22.868;2023-05-23T04:13:43;101280.00;;;16.97;100.00
63808;BME280;49961;43.970;22.868;2023-05-23T04:14:46;101280.19;;;17.02;100.00
63808;BME280;49961;43.970;22.868;2023-05-23T04:15:47;101275.69;;;17.05;100.00
63808;BME280;49961;43.970;22.868;2023-05-23T04:16:48;101259.31;;;16.94;100.00
63808;BME280;49961;43.970;22.868;2023-05-23T04:17:48;101188.97;;;16.53;100.00
63808;BME280;49961;43.970;22.868;2023-05-23T04:18:50;101263.09;;;17.09;100.00
63808;BME280;49961;43.970;22.868;2023-05-23T04:19:51;101279.94;;;17.18;100.00
63808;BME280;49961;43.970;22.868;2023-05-23T04:20:51;101281.78;;;17.21;100.00
63808;BME280;49961;43.970;22.868;2023-05-23T04:21:51;101271.69;;;17.24;100.00
63808;BME280;49961;43.970;22.868;2023-05-23T04:22:52;101175.19;;;16.58;100.00
63808;BME280;49961;43.970;22.868;2023-05-23T04:23:52;101292.13;;;17.33;100.00
63808;BME280;49961;43.970;22.868;2023-05-23T04:24:53;101285.13;;;17.38;100.00
63808;BME280;49961;43.970;22.868;2023-05-23T04:25:53;101278.63;;;17.41;100.00
63808;BME280;49961;43.970;22.868;2023-05-23T04:26:54;101279.13;;;17.49;100.00
63808;BME280;49961;43.970;22.868;2023-05-23T04:27:55;101273.66;;;17.54;100.00
63808;BME280;49961;43.970;22.868;2023-05-23T04:28:55;101278.97;;;17.61;100.00
63808;BME280;49961;43.970;22.868;2023-05-23T04:29:56;101279.13;;;17.67;100.00
63808;BME280;49961;43.970;22.868;2023-05-23T04:30:57;101266.38;;;17.66;100.00
63808;BME280;49961;43.970;22.868;2023-05-23T04:31:57;101264.97;;;17.70;100.00
63808;BME280;49961;43.970;22.868;2023-05-23T04:32:58;101267.00;;;17.70;100.00
63808;BME280;49961;43.970;22.868;2023-05-23T04:33:59;101282.13;;;17.72;100.00
63808;BME280;49961;43.970;22.868;2023-05-23T04:35:00;101266.97;;;17.61;100.00
63808;BME280;49961;43.970;22.868;2023-05-23T04:36:01;101276.31;;;17.58;100.00
63808;BME280;49961;43.970;22.868;2023-05-23T04:37:01;101234.03;;;17.25;100.00
63808;BME280;49961;43.970;22.868;2023-05-23T04:38:02;101280.06;;;17.63;100.00
63808;BME280;49961;43.970;22.868;2023-05-23T04:39:04;101279.13;;;17.67;100.00
63808;BME280;49961;43.970;22.868;2023-05-23T04:40:05;101280.53;;;17.71;100.00
63808;BME280;49961;43.970;22.868;2023-05-23T04:41:06;101261.22;;;17.64;100.00
63808;BME280;49961;43.970;22.868;2023-05-23T04:42:12;101194.97;;;17.21;100.00
63808;BME280;49961;43.970;22.868;2023-05-23T04:43:13;101294.75;;;17.86;100.00
63808;BME280;49961;43.970;22.868;2023-05-23T04:44:13;101176.16;;;17.22;100.00
63808;BME280;49961;43.970;22.868;2023-05-23T04:45:14;101263.09;;;17.76;100.00
63808;BME280;49961;43.970;22.868;2023-05-23T04:46:15;101287.09;;;17.86;100.00
63808;BME280;49961;43.970;22.868;2023-05-23T04:47:15;101252.66;;;17.67;100.00
63808;BME280;49961;43.970;22.868;2023-05-23T04:48:16;101285.53;;;17.85;100.00
63808;BME280;49961;43.970;22.868;2023-05-23T04:49:21;101284.63;;;17.88;100.00
63808;BME280;49961;43.970;22.868;2023-05-23T04:50:21;101282.41;;;18.01;100.00
63808;BME280;49961;43.970;22.868;2023-05-23T04:51:22;101292.56;;;18.08;100.00
63808;BME280;49961;43.970;22.868;2023-05-23T04:52:22;101289.13;;;18.13;100.00
63808;BME280;49961;43.970;22.868;2023-05-23T04:53:24;101290.84;;;18.19;100.00
63808;BME280;49961;43.970;22.868;2023-05-23T04:54:25;101286.63;;;18.23;100.00
63808;BME280;49961;43.970;22.868;2023-05-23T04:55:25;101249.84;;;18.03;100.00
63808;BME280;49961;43.970;22.868;2023-05-23T04:56:26;101184.13;;;17.68;100.00
63808;BME280;49961;43.970;22.868;2023-05-23T04:57:27;101273.41;;;18.33;100.00
63808;BME280;49961;43.970;22.868;2023-05-23T04:58:28;101299.44;;;18.43;100.00
63808;BME280;49961;43.970;22.868;2023-05-23T04:59:28;101297.88;;;18.42;100.00
63808;BME280;49961;43.970;22.868;2023-05-23T05:00:28;101294.44;;;18.38;100.00
63808;BME280;49961;43.970;22.868;2023-05-23T05:01:29;101299.25;;;18.37;100.00
63808;BME280;49961;43.970;22.868;2023-05-23T05:02:30;101262.16;;;18.15;100.00
63808;BME280;49961;43.970;22.868;2023-05-23T05:03:34;101189.44;;;17.67;100.00
63808;BME280;49961;43.970;22.868;2023-05-23T05:04:34;101295.84;;;18.24;100.00
63808;BME280;49961;43.970;22.868;2023-05-23T05:05:35;101299.09;;;18.23;100.00
63808;BME280;49961;43.970;22.868;2023-05-23T05:06:36;101282.88;;;18.08;100.00
63808;BME280;49961;43.970;22.868;2023-05-23T05:07:37;101302.53;;;18.17;100.00
63808;BME280;49961;43.970;22.868;2023-05-23T05:08:38;101298.81;;;18.21;100.00
63808;BME280;49961;43.970;22.868;2023-05-23T05:09:39;101296.47;;;18.19;100.00
63808;BME280;49961;43.970;22.868;2023-05-23T05:10:40;101303.63;;;18.20;100.00
63808;BME280;49961;43.970;22.868;2023-05-23T05:11:41;101300.34;;;18.22;100.00
63808;BME280;49961;43.970;22.868;2023-05-23T05:12:45;101311.25;;;18.28;100.00
63808;BME280;49961;43.970;22.868;2023-05-23T05:13:46;101301.75;;;18.26;100.00
63808;BME280;49961;43.970;22.868;2023-05-23T05:14:46;101294.88;;;18.27;100.00
63808;BME280;49961;43.970;22.868;2023-05-23T05:15:46;101307.69;;;18.37;100.00
63808;BME280;49961;43.970;22.868;2023-05-23T05:16:47;101288.50;;;18.27;100.00
63808;BME280;49961;43.970;22.868;2023-05-23T05:17:49;101210.78;;;17.82;100.00